Time;durP1;ratioP1;P1;durP2;ratioP2;P2;SDS_P1;SDS_P2;PMS_P1;PMS_P2;Temp;Humidity;BMP_temperature;BMP_pressure;BME280_temperature;BME280_humidity;BME280_pressure;Samples;Min_cycle;Max_cycle;Signal;HPM_P1;HPM_P2
2021/01/06 00:00:38;;;;;;;11.87;9.07;;;4.10;99.90;;;;;;5012546;28;20222;-89
2021/01/06 00:03:05;;;;;;;12.67;8.87;;;4.10;99.90;;;;;;5011702;28;20203;-88
2021/01/06 00:05:31;;;;;;;13.43;9.67;;;4.10;99.90;;;;;;5013257;28;20242;-88
2021/01/06 00:07:57;;;;;;;10.00;8.43;;;4.20;99.90;;;;;;5013532;28;20203;-87
2021/01/06 00:10:27;;;;;;;11.67;8.73;;;4.10;99.90;;;;;;5010757;28;20230;-87
2021/01/06 00:12:54;;;;;;;10.50;8.33;;;4.10;99.90;;;;;;5006901;28;20258;-86
2021/01/06 00:15:24;;;;;;;13.20;9.57;;;4.10;99.90;;;;;;5006158;28;20510;-88
2021/01/06 00:17:50;;;;;;;9.57;8.00;;;4.10;99.90;;;;;;5008364;28;20483;-88
2021/01/06 00:20:18;;;;;;;11.80;9.10;;;4.10;99.90;;;;;;5011990;28;20207;-87
2021/01/06 00:22:44;;;;;;;9.47;8.27;;;4.10;99.90;;;;;;5012493;28;20203;-85
2021/01/06 00:25:16;;;;;;;10.17;8.13;;;4.10;99.90;;;;;;5012549;28;20234;-88
2021/01/06 00:27:42;;;;;;;9.90;8.43;;;4.10;99.90;;;;;;5012609;28;20207;-88
2021/01/06 00:30:14;;;;;;;10.20;8.13;;;4.10;99.90;;;;;;5012164;28;20425;-88
2021/01/06 00:32:41;;;;;;;11.70;8.67;;;4.00;99.90;;;;;;5013257;28;20483;-89
2021/01/06 00:35:09;;;;;;;18.73;10.03;;;4.00;99.90;;;;;;5012620;28;20203;-87
2021/01/06 00:37:35;;;;;;;12.57;9.13;;;4.00;99.90;;;;;;5011422;28;20608;-88
2021/01/06 00:40:01;;;;;;;11.37;8.57;;;4.10;99.90;;;;;;5012891;28;20202;-87
2021/01/06 00:42:27;;;;;;;11.70;9.17;;;4.10;99.90;;;;;;5013212;28;20203;-90
2021/01/06 00:44:54;;;;;;;13.23;9.80;;;4.10;99.90;;;;;;5010938;28;20203;-89
2021/01/06 00:47:20;;;;;;;12.47;8.77;;;4.00;99.90;;;;;;5012892;28;20200;-89
2021/01/06 00:49:47;;;;;;;9.93;7.90;;;3.90;99.90;;;;;;5012772;28;20253;-86
2021/01/06 00:52:14;;;;;;;12.33;8.70;;;3.90;99.90;;;;;;5012361;28;20199;-92
2021/01/06 00:54:40;;;;;;;11.60;9.27;;;3.90;99.90;;;;;;5012504;28;20203;-88
2021/01/06 00:57:07;;;;;;;15.00;9.73;;;3.90;99.90;;;;;;5012606;28;20231;-90
2021/01/06 00:59:33;;;;;;;11.67;8.53;;;3.80;99.90;;;;;;5011882;28;20355;-88
2021/01/06 01:01:59;;;;;;;10.53;8.37;;;3.90;99.90;;;;;;5012183;28;20577;-87
2021/01/06 01:04:26;;;;;;;13.27;8.90;;;3.90;99.90;;;;;;5012389;28;20243;-89
2021/01/06 01:06:53;;;;;;;10.20;8.83;;;3.80;99.90;;;;;;5012374;28;20200;-86
2021/01/06 01:09:20;;;;;;;12.00;8.73;;;3.80;99.90;;;;;;5012298;28;20235;-88
2021/01/06 01:11:46;;;;;;;11.60;8.97;;;3.70;99.90;;;;;;5012122;28;20227;-91
2021/01/06 01:14:12;;;;;;;12.07;8.27;;;3.80;99.90;;;;;;5010655;28;20226;-88
2021/01/06 01:16:41;;;;;;;14.50;8.77;;;3.80;99.90;;;;;;5006764;28;20211;-87
2021/01/06 01:19:08;;;;;;;10.37;7.50;;;3.80;99.90;;;;;;5010435;28;20258;-82
2021/01/06 01:21:34;;;;;;;13.30;8.20;;;3.80;99.90;;;;;;5012573;28;20206;-86
2021/01/06 01:24:02;;;;;;;14.30;7.67;;;3.70;99.90;;;;;;5011820;28;20219;-86
2021/01/06 01:26:28;;;;;;;9.20;7.10;;;3.70;99.90;;;;;;5011451;28;20192;-85
2021/01/06 01:28:54;;;;;;;9.40;6.40;;;3.70;99.90;;;;;;5011668;28;20207;-88
2021/01/06 01:31:20;;;;;;;10.20;6.60;;;3.70;99.90;;;;;;5011477;28;20234;-91
2021/01/06 01:33:47;;;;;;;10.50;7.00;;;3.70;99.90;;;;;;5012077;28;20254;-88
2021/01/06 01:36:13;;;;;;;8.37;7.13;;;3.70;99.90;;;;;;5011745;28;20301;-86
2021/01/06 01:38:40;;;;;;;8.67;6.97;;;3.60;99.90;;;;;;5011977;28;20604;-86
2021/01/06 01:41:10;;;;;;;10.10;6.60;;;3.70;99.90;;;;;;5011248;28;20246;-85
2021/01/06 01:43:37;;;;;;;11.30;6.50;;;3.60;99.90;;;;;;5011347;28;20199;-85
2021/01/06 01:46:51;;;;;;;9.93;7.07;;;3.60;99.90;;;;;;5010917;28;20206;-87
2021/01/06 01:49:23;;;;;;;14.90;8.10;;;3.50;99.90;;;;;;5010882;28;20980;-87
2021/01/06 01:51:56;;;;;;;11.47;7.27;;;3.50;99.90;;;;;;5011314;28;20251;-87
2021/01/06 01:54:25;;;;;;;8.80;7.10;;;3.50;99.90;;;;;;5011020;28;20195;-87
2021/01/06 01:56:56;;;;;;;11.50;6.87;;;3.50;99.90;;;;;;5011917;28;20214;-88
2021/01/06 01:59:29;;;;;;;11.67;8.00;;;3.50;99.90;;;;;;5010033;28;20277;-86
2021/01/06 02:01:59;;;;;;;11.50;7.60;;;3.40;99.90;;;;;;5011326;28;20206;-88
2021/01/06 02:04:30;;;;;;;11.90;8.37;;;3.40;99.90;;;;;;5010910;28;20537;-87
2021/01/06 02:07:03;;;;;;;9.70;7.60;;;3.30;99.90;;;;;;5011652;28;20223;-87
2021/01/06 02:09:35;;;;;;;11.20;7.30;;;3.30;99.90;;;;;;5010887;28;20192;-85
2021/01/06 02:12:11;;;;;;;11.13;6.80;;;3.30;99.90;;;;;;5010873;28;20285;-87
2021/01/06 02:14:46;;;;;;;13.03;7.97;;;3.20;99.90;;;;;;5009699;28;20207;-91
2021/01/06 02:17:14;;;;;;;10.97;7.27;;;3.20;99.90;;;;;;5010860;28;20186;-89
2021/01/06 02:19:43;;;;;;;10.53;7.03;;;3.20;99.90;;;;;;5006705;28;20316;-88
2021/01/06 02:22:12;;;;;;;13.97;7.10;;;3.30;99.90;;;;;;5004234;28;20207;-88
2021/01/06 02:24:39;;;;;;;12.17;7.60;;;3.20;99.90;;;;;;5009167;28;20238;-87
2021/01/06 02:27:06;;;;;;;9.77;7.07;;;3.20;99.90;;;;;;5010396;28;20196;-85
2021/01/06 02:29:34;;;;;;;12.70;7.10;;;3.20;99.90;;;;;;5010767;28;20261;-87
2021/01/06 02:32:01;;;;;;;8.70;5.90;;;3.20;99.90;;;;;;5010715;28;20230;-89
2021/01/06 02:34:27;;;;;;;7.47;5.30;;;3.30;99.90;;;;;;5009241;28;20195;-86
2021/01/06 02:36:54;;;;;;;10.10;4.73;;;3.20;99.90;;;;;;5011080;28;20210;-87
2021/01/06 02:39:21;;;;;;;8.43;4.90;;;3.20;99.90;;;;;;5010685;28;20192;-87
2021/01/06 02:41:49;;;;;;;8.27;4.47;;;3.20;99.90;;;;;;5010754;28;20199;-87
2021/01/06 02:44:16;;;;;;;7.67;4.77;;;3.20;99.90;;;;;;5010459;28;20207;-86
2021/01/06 02:46:43;;;;;;;7.37;4.23;;;3.20;99.90;;;;;;5010622;28;20223;-87
2021/01/06 02:49:10;;;;;;;8.87;4.80;;;3.20;99.90;;;;;;5010312;28;20323;-86
2021/01/06 02:51:41;;;;;;;11.97;4.60;;;3.20;99.90;;;;;;5010286;28;20622;-88
2021/01/06 02:54:11;;;;;;;8.47;4.07;;;3.20;99.90;;;;;;5010458;28;20195;-87
2021/01/06 02:56:40;;;;;;;9.70;3.90;;;3.20;99.90;;;;;;5010780;28;20198;-87
2021/01/06 02:59:10;;;;;;;5.73;3.50;;;3.20;99.90;;;;;;5010216;28;20298;-89
2021/01/06 03:01:40;;;;;;;10.60;3.77;;;3.20;99.90;;;;;;5011033;28;20902;-86
2021/01/06 03:04:09;;;;;;;8.70;4.07;;;3.20;99.90;;;;;;5009347;28;20635;-88
2021/01/06 03:06:40;;;;;;;5.43;3.23;;;3.20;99.90;;;;;;4991031;28;20235;-87
2021/01/06 03:09:30;;;;;;;8.83;4.50;;;3.20;99.90;;;;;;4991022;28;20254;-87
2021/01/06 03:12:00;;;;;;;7.70;3.70;;;3.20;99.90;;;;;;4990388;28;20216;-86
2021/01/06 03:14:28;;;;;;;9.07;4.07;;;3.20;99.90;;;;;;4989669;28;20208;-88
2021/01/06 03:16:55;;;;;;;7.17;4.17;;;3.20;99.90;;;;;;4990799;28;20249;-89
2021/01/06 03:19:25;;;;;;;7.50;4.23;;;3.20;99.90;;;;;;4990567;28;20207;-89
2021/01/06 03:21:53;;;;;;;6.47;3.37;;;3.20;99.90;;;;;;4991008;28;20200;-86
2021/01/06 03:24:23;;;;;;;10.37;4.20;;;3.20;99.90;;;;;;4990289;28;20564;-89
2021/01/06 03:26:51;;;;;;;9.27;4.03;;;3.20;99.90;;;;;;4990046;28;20211;-88
2021/01/06 03:29:19;;;;;;;10.30;4.23;;;3.20;99.90;;;;;;4990725;28;20505;-89
2021/01/06 03:31:48;;;;;;;7.57;3.80;;;3.20;99.90;;;;;;4990857;28;20978;-86
2021/01/06 03:34:22;;;;;;;8.50;4.70;;;3.20;99.90;;;;;;4990107;28;20192;-88
2021/01/06 03:36:55;;;;;;;9.50;3.90;;;3.20;99.90;;;;;;4993514;28;20204;-88
2021/01/06 03:39:28;;;;;;;7.13;4.20;;;3.20;99.90;;;;;;4994139;28;20287;-88
2021/01/06 03:41:56;;;;;;;7.67;4.23;;;3.20;99.90;;;;;;4994375;28;20229;-88
2021/01/06 03:44:25;;;;;;;6.47;3.70;;;3.20;99.90;;;;;;4994241;28;20200;-89
2021/01/06 03:46:59;;;;;;;9.17;4.23;;;3.20;99.90;;;;;;4994122;28;20220;-88
2021/01/06 03:49:41;;;;;;;9.23;4.43;;;3.20;99.90;;;;;;4993250;28;20255;-89
2021/01/06 03:52:16;;;;;;;8.27;3.77;;;3.20;99.90;;;;;;4993599;28;20232;-87
2021/01/06 03:54:51;;;;;;;9.33;3.93;;;3.20;99.90;;;;;;4993823;28;20226;-89
2021/01/06 03:57:19;;;;;;;7.53;3.97;;;3.20;99.90;;;;;;4993719;28;20188;-88
2021/01/06 03:59:49;;;;;;;5.70;3.70;;;3.20;99.90;;;;;;4994082;28;20203;-89
2021/01/06 04:02:21;;;;;;;5.67;4.13;;;3.10;99.90;;;;;;4993918;28;20208;-89
2021/01/06 04:04:50;;;;;;;6.00;3.63;;;3.10;99.90;;;;;;4998214;28;20235;-88
2021/01/06 04:07:19;;;;;;;7.20;4.50;;;3.10;99.90;;;;;;5013441;28;20203;-89
2021/01/06 04:09:51;;;;;;;8.83;4.27;;;3.10;99.90;;;;;;5013558;28;20933;-88
2021/01/06 04:12:19;;;;;;;9.00;4.37;;;3.20;99.90;;;;;;5013250;28;20317;-89
2021/01/06 04:14:47;;;;;;;8.53;4.13;;;3.20;99.90;;;;;;5009114;28;20211;-89
2021/01/06 04:17:18;;;;;;;6.20;4.27;;;3.20;99.90;;;;;;5006757;28;20191;-89
2021/01/06 04:19:47;;;;;;;5.20;3.73;;;3.20;99.90;;;;;;5012771;28;20207;-89
2021/01/06 04:22:14;;;;;;;7.47;3.90;;;3.10;99.90;;;;;;5012569;28;20575;-88
2021/01/06 04:24:40;;;;;;;6.80;3.80;;;3.10;99.90;;;;;;5009060;28;20732;-89
2021/01/06 04:27:07;;;;;;;5.57;3.70;;;3.00;99.90;;;;;;5008435;28;20207;-88
2021/01/06 04:29:33;;;;;;;5.87;4.50;;;3.00;99.90;;;;;;5010349;28;20199;-88
2021/01/06 04:32:00;;;;;;;6.33;4.47;;;3.00;99.90;;;;;;5012781;28;20223;-88
2021/01/06 04:34:27;;;;;;;9.20;4.33;;;3.00;99.90;;;;;;5012872;28;20203;-88
2021/01/06 04:36:53;;;;;;;8.40;4.40;;;3.10;99.90;;;;;;5012804;28;20211;-85
2021/01/06 04:39:19;;;;;;;8.77;4.27;;;3.10;99.90;;;;;;5012403;28;20230;-87
2021/01/06 04:41:55;;;;;;;6.93;3.67;;;3.10;99.90;;;;;;5012097;28;20214;-87
2021/01/06 04:44:53;;;;;;;7.00;3.77;;;3.10;99.90;;;;;;5007812;28;20290;-87
2021/01/06 04:48:01;;;;;;;11.83;4.83;;;3.10;99.90;;;;;;5005995;28;20258;-88
2021/01/06 04:51:00;;;;;;;10.63;4.53;;;3.10;99.90;;;;;;5006289;28;20227;-88
2021/01/06 04:53:37;;;;;;;9.63;4.20;;;3.10;99.90;;;;;;5007950;28;20199;-90
2021/01/06 04:56:20;;;;;;;9.10;4.67;;;3.10;99.90;;;;;;5012558;28;20195;-88
2021/01/06 04:58:53;;;;;;;10.90;4.37;;;3.10;99.90;;;;;;5012745;28;20195;-88
2021/01/06 05:01:37;;;;;;;8.90;4.00;;;3.10;99.90;;;;;;5011960;28;20207;-89
2021/01/06 05:04:15;;;;;;;7.00;3.70;;;3.10;99.90;;;;;;5011634;28;20603;-87
2021/01/06 05:06:54;;;;;;;8.50;4.40;;;3.00;99.90;;;;;;5012208;28;20203;-88
2021/01/06 05:09:24;;;;;;;6.37;4.63;;;3.10;99.90;;;;;;5012260;28;20599;-89
2021/01/06 05:12:11;;;;;;;8.43;4.60;;;3.10;99.90;;;;;;5012255;28;20313;-86
2021/01/06 05:14:46;;;;;;;6.23;4.10;;;3.00;99.90;;;;;;5012540;28;20476;-89
2021/01/06 05:17:13;;;;;;;11.67;4.63;;;3.00;99.90;;;;;;5012195;28;20205;-87
2021/01/06 05:19:42;;;;;;;8.53;4.97;;;3.00;99.90;;;;;;5011723;28;20269;-87
2021/01/06 05:22:12;;;;;;;10.70;4.50;;;3.00;99.90;;;;;;5011558;28;20596;-86
2021/01/06 05:24:41;;;;;;;7.40;4.17;;;3.00;99.90;;;;;;5011686;28;20250;-90
2021/01/06 05:27:22;;;;;;;9.90;4.77;;;2.90;99.90;;;;;;5011769;28;20211;-89
2021/01/06 05:29:51;;;;;;;7.73;4.10;;;2.90;99.90;;;;;;5011591;28;20196;-87
2021/01/06 05:32:22;;;;;;;7.23;4.73;;;2.90;99.90;;;;;;5011090;28;20238;-87
2021/01/06 05:34:51;;;;;;;8.77;4.47;;;2.80;99.90;;;;;;5012090;28;20184;-88
2021/01/06 05:37:22;;;;;;;6.73;4.63;;;2.90;99.90;;;;;;5010529;28;20652;-86
2021/01/06 05:39:48;;;;;;;9.17;4.50;;;2.90;99.90;;;;;;5011653;28;20199;-85
2021/01/06 05:42:21;;;;;;;6.77;4.03;;;2.90;99.90;;;;;;5011627;28;20203;-86
2021/01/06 05:44:50;;;;;;;6.20;4.10;;;2.80;99.90;;;;;;5010975;28;20207;-89
2021/01/06 05:47:25;;;;;;;7.63;4.70;;;2.80;99.90;;;;;;5011653;28;20202;-87
2021/01/06 05:49:54;;;;;;;6.53;4.07;;;2.80;99.90;;;;;;5011675;28;20202;-88
2021/01/06 05:52:25;;;;;;;10.83;4.77;;;2.70;99.90;;;;;;5011019;28;20235;-87
2021/01/06 05:54:55;;;;;;;9.00;4.87;;;2.60;99.90;;;;;;5011666;28;20183;-89
2021/01/06 05:57:37;;;;;;;8.90;5.03;;;2.60;99.90;;;;;;5011022;28;20206;-86
2021/01/06 06:00:20;;;;;;;7.80;4.90;;;2.60;99.90;;;;;;5010746;28;20184;-86
2021/01/06 06:02:56;;;;;;;10.40;4.83;;;2.60;99.90;;;;;;5010951;28;20777;-89
2021/01/06 06:05:40;;;;;;;6.60;4.50;;;2.60;99.90;;;;;;5010726;28;20277;-87
2021/01/06 06:08:43;;;;;;;7.93;5.00;;;2.60;99.90;;;;;;5010414;28;20203;-86
2021/01/06 06:11:48;;;;;;;7.10;4.23;;;2.60;99.90;;;;;;5009758;28;20214;-89
2021/01/06 06:14:44;;;;;;;6.47;4.70;;;2.60;99.90;;;;;;5011291;28;20203;-90
2021/01/06 06:17:16;;;;;;;6.73;4.80;;;2.60;99.90;;;;;;5010905;28;20198;-88
2021/01/06 06:20:03;;;;;;;7.63;4.93;;;2.60;99.90;;;;;;5010794;28;20195;-86
2021/01/06 06:22:34;;;;;;;7.10;4.87;;;2.50;99.90;;;;;;5010887;28;20203;-86
2021/01/06 06:25:05;;;;;;;7.70;4.87;;;2.40;99.90;;;;;;5011025;28;20227;-87
2021/01/06 06:27:49;;;;;;;6.70;4.30;;;2.40;99.90;;;;;;5011169;28;20273;-86
2021/01/06 06:30:27;;;;;;;8.60;5.20;;;2.30;99.90;;;;;;5010737;28;20203;-88
2021/01/06 06:32:54;;;;;;;8.73;4.90;;;2.20;99.90;;;;;;5010963;28;20214;-87
2021/01/06 06:35:24;;;;;;;10.13;5.60;;;2.10;99.90;;;;;;5010512;28;20207;-86
2021/01/06 06:37:55;;;;;;;7.03;5.30;;;2.20;99.90;;;;;;5010681;28;20257;-88
2021/01/06 06:40:23;;;;;;;9.57;5.10;;;2.20;99.90;;;;;;5010538;28;20203;-87
2021/01/06 06:42:56;;;;;;;6.83;4.77;;;2.20;99.90;;;;;;5010537;28;20207;-84
2021/01/06 06:45:46;;;;;;;8.20;5.53;;;2.10;99.90;;;;;;5010190;28;20187;-86
2021/01/06 06:48:22;;;;;;;9.60;5.20;;;2.10;99.90;;;;;;5010269;28;20199;-86
2021/01/06 06:50:56;;;;;;;12.53;6.33;;;2.10;99.90;;;;;;5010105;28;20642;-86
2021/01/06 06:53:37;;;;;;;8.27;5.70;;;2.10;99.90;;;;;;5010296;28;20199;-88
2021/01/06 06:56:20;;;;;;;7.27;5.20;;;2.10;99.90;;;;;;5009978;28;20195;-87
2021/01/06 06:58:51;;;;;;;6.63;4.80;;;2.10;99.90;;;;;;5004648;28;20203;-87
2021/01/06 07:01:21;;;;;;;12.00;5.60;;;2.10;99.90;;;;;;5006846;28;20207;-83
2021/01/06 07:03:56;;;;;;;8.27;5.80;;;2.10;99.90;;;;;;5009750;28;20231;-83
2021/01/06 07:06:23;;;;;;;8.93;5.87;;;2.10;99.90;;;;;;5009327;28;20341;-85
2021/01/06 07:08:53;;;;;;;9.93;5.07;;;2.20;99.90;;;;;;5009432;28;20847;-84
2021/01/06 07:11:24;;;;;;;7.83;5.63;;;2.20;99.90;;;;;;5011716;28;20219;-84
2021/01/06 07:14:06;;;;;;;8.73;5.17;;;2.20;99.90;;;;;;5013091;28;20212;-84
2021/01/06 07:16:40;;;;;;;7.70;5.40;;;2.30;99.90;;;;;;5013694;28;20207;-84
2021/01/06 07:19:23;;;;;;;8.70;6.13;;;2.30;99.90;;;;;;5012966;28;20207;-85
2021/01/06 07:21:53;;;;;;;10.47;5.77;;;2.30;99.90;;;;;;5013938;28;20230;-86
2021/01/06 07:24:23;;;;;;;8.57;5.70;;;2.30;99.90;;;;;;5012816;28;20239;-85
2021/01/06 07:26:54;;;;;;;7.07;5.37;;;2.30;99.90;;;;;;5013377;28;20527;-85
2021/01/06 07:29:23;;;;;;;8.60;5.47;;;2.30;99.90;;;;;;5013142;28;20211;-83
2021/01/06 07:32:02;;;;;;;14.00;6.57;;;2.30;99.90;;;;;;5012533;28;20231;-84
2021/01/06 07:34:41;;;;;;;10.90;6.53;;;2.20;99.90;;;;;;5012016;28;20310;-84
2021/01/06 07:37:23;;;;;;;10.93;6.93;;;2.40;99.90;;;;;;5012537;28;20211;-83
2021/01/06 07:39:57;;;;;;;10.73;6.70;;;2.40;99.90;;;;;;5012553;28;20301;-84
2021/01/06 07:42:37;;;;;;;7.87;6.10;;;2.40;99.90;;;;;;5012657;28;20199;-86
2021/01/06 07:45:26;;;;;;;9.63;6.20;;;2.40;99.90;;;;;;5010328;28;20715;-85
2021/01/06 07:48:02;;;;;;;11.97;6.40;;;2.40;99.90;;;;;;5012880;28;20199;-82
2021/01/06 07:50:30;;;;;;;10.20;5.67;;;2.40;99.90;;;;;;5012479;28;20238;-83
2021/01/06 07:53:01;;;;;;;11.67;7.80;;;2.40;99.90;;;;;;5012663;28;20467;-83
2021/01/06 08:13:09;;;;;;;12.80;6.77;;;2.50;99.90;;;;;;4876378;29;20212;-85
2021/01/06 08:15:36;;;;;;;10.03;6.87;;;2.50;99.90;;;;;;4902826;28;20265;-82
2021/01/06 08:18:07;;;;;;;9.83;5.73;;;2.50;99.90;;;;;;4990906;28;20282;-83
2021/01/06 08:20:36;;;;;;;9.73;6.10;;;2.50;99.90;;;;;;4992175;28;20208;-85
2021/01/06 08:23:20;;;;;;;9.50;6.13;;;2.50;99.90;;;;;;4991428;28;20208;-83
2021/01/06 08:25:56;;;;;;;11.37;6.03;;;2.60;99.90;;;;;;4992093;28;20227;-85
2021/01/06 08:28:25;;;;;;;9.83;6.07;;;2.60;99.90;;;;;;4992086;28;20204;-84
2021/01/06 08:30:51;;;;;;;9.77;6.97;;;2.60;99.90;;;;;;4992171;28;20231;-84
2021/01/06 08:33:20;;;;;;;10.97;6.30;;;2.60;99.90;;;;;;4991108;28;20211;-83
2021/01/06 08:35:50;;;;;;;13.17;6.87;;;2.60;99.90;;;;;;4991958;28;20204;-82
2021/01/06 08:38:26;;;;;;;9.40;6.37;;;2.60;99.90;;;;;;4991790;28;20208;-83
2021/01/06 08:40:53;;;;;;;8.73;6.57;;;2.70;99.90;;;;;;4990783;28;20204;-82
2021/01/06 08:43:19;;;;;;;10.93;6.97;;;2.70;99.90;;;;;;4991004;28;20231;-84
2021/01/06 08:45:55;;;;;;;12.20;7.80;;;2.70;99.90;;;;;;4993301;28;20211;-86
2021/01/06 08:48:26;;;;;;;9.87;5.97;;;2.70;99.90;;;;;;4992033;28;20204;-88
2021/01/06 08:50:54;;;;;;;10.17;6.43;;;2.70;99.90;;;;;;4991602;28;20231;-84
2021/01/06 08:53:32;;;;;;;11.63;7.20;;;2.70;99.90;;;;;;4991471;28;20207;-89
2021/01/06 08:56:00;;;;;;;8.97;6.93;;;2.80;99.90;;;;;;4985684;28;20199;-88
2021/01/06 08:58:41;;;;;;;11.77;6.80;;;2.80;99.90;;;;;;4986145;28;20204;-88
2021/01/06 09:01:23;;;;;;;12.00;7.03;;;2.80;99.90;;;;;;4986707;28;20192;-88
2021/01/06 09:04:02;;;;;;;11.17;6.37;;;2.90;99.90;;;;;;4992549;28;20201;-88
2021/01/06 09:06:29;;;;;;;11.83;7.00;;;3.00;99.90;;;;;;4993249;28;20199;-89
2021/01/06 09:09:12;;;;;;;8.57;5.70;;;3.00;99.90;;;;;;4992392;28;20318;-89
2021/01/06 09:11:51;;;;;;;10.17;6.33;;;3.00;99.90;;;;;;4992814;28;20215;-88
2021/01/06 09:14:28;;;;;;;10.67;6.60;;;3.00;99.90;;;;;;4992372;28;20214;-90
2021/01/06 09:17:07;;;;;;;11.67;7.03;;;3.00;99.90;;;;;;4991976;28;20526;-87
2021/01/06 09:19:43;;;;;;;13.43;6.97;;;3.00;99.90;;;;;;4992125;28;20671;-88
2021/01/06 09:22:11;;;;;;;9.80;6.40;;;3.00;99.90;;;;;;4992192;28;20211;-89
2021/01/06 09:24:40;;;;;;;9.10;5.83;;;3.10;99.90;;;;;;4990743;28;20524;-87
2021/01/06 09:27:25;;;;;;;9.90;6.37;;;3.10;99.90;;;;;;4990829;28;20193;-89
2021/01/06 09:29:53;;;;;;;10.63;6.30;;;3.20;99.90;;;;;;4991939;28;20212;-90
2021/01/06 09:32:25;;;;;;;11.13;7.00;;;3.20;99.90;;;;;;4990402;28;20887;-86
2021/01/06 09:34:57;;;;;;;11.07;7.20;;;3.20;99.90;;;;;;4991325;28;20192;-85
2021/01/06 09:37:27;;;;;;;11.97;6.10;;;3.20;99.90;;;;;;4991678;28;20243;-86
2021/01/06 09:39:55;;;;;;;11.13;7.00;;;3.30;99.90;;;;;;4991008;28;20200;-87
2021/01/06 09:42:22;;;;;;;10.83;6.20;;;3.30;99.90;;;;;;4991797;28;20201;-87
2021/01/06 09:44:49;;;;;;;8.10;5.83;;;3.30;99.90;;;;;;4991426;28;20200;-87
2021/01/06 09:47:25;;;;;;;8.83;6.23;;;3.40;99.90;;;;;;4991042;28;20207;-88
2021/01/06 09:49:56;;;;;;;13.93;6.67;;;3.40;99.90;;;;;;4992160;28;20206;-88
2021/01/06 09:52:28;;;;;;;10.57;6.87;;;3.50;99.90;;;;;;4991322;28;20941;-88
2021/01/06 09:54:56;;;;;;;9.17;5.93;;;3.60;99.90;;;;;;4991014;28;20184;-88
2021/01/06 09:57:24;;;;;;;10.70;5.70;;;3.60;99.90;;;;;;4991536;28;20227;-88
2021/01/06 09:59:53;;;;;;;10.80;5.80;;;3.70;99.90;;;;;;4991226;28;20862;-89
2021/01/06 10:02:24;;;;;;;10.00;5.10;;;3.70;99.90;;;;;;5008944;28;20207;-87
2021/01/06 10:04:55;;;;;;;7.87;5.37;;;3.70;99.90;;;;;;5011728;28;20199;-88
2021/01/06 10:07:35;;;;;;;10.20;6.00;;;3.70;99.90;;;;;;5011006;28;20207;-86
2021/01/06 10:10:06;;;;;;;7.73;5.40;;;3.80;99.90;;;;;;5010901;28;20294;-87
2021/01/06 10:13:04;;;;;;;9.37;4.70;;;3.80;99.90;;;;;;5011422;28;20265;-86
2021/01/06 10:15:54;;;;;;;7.37;4.93;;;3.90;99.90;;;;;;4988536;28;20203;-88
2021/01/06 10:18:33;;;;;;;9.53;5.40;;;3.90;99.90;;;;;;5011094;28;20498;-88
2021/01/06 10:21:02;;;;;;;7.20;4.80;;;3.90;99.90;;;;;;5010175;28;20815;-90
2021/01/06 10:23:38;;;;;;;8.43;5.10;;;3.90;99.90;;;;;;5011292;28;20593;-88
2021/01/06 10:26:30;;;;;;;8.50;5.40;;;4.00;99.90;;;;;;5011135;28;20215;-87
2021/01/06 10:28:57;;;;;;;8.97;5.10;;;4.00;99.90;;;;;;5008577;28;20230;-87
2021/01/06 10:31:26;;;;;;;10.73;5.30;;;4.00;99.90;;;;;;5011131;28;20227;-87
2021/01/06 10:34:04;;;;;;;7.07;4.40;;;4.00;99.90;;;;;;5010758;28;20207;-89
2021/01/06 10:36:57;;;;;;;8.90;4.53;;;4.10;99.90;;;;;;5009654;28;20203;-88
2021/01/06 10:39:29;;;;;;;9.50;5.07;;;4.10;99.90;;;;;;5009719;28;20195;-86
2021/01/06 10:42:00;;;;;;;8.07;4.33;;;4.10;99.90;;;;;;5007800;28;20830;-88
2021/01/06 10:44:34;;;;;;;10.97;5.27;;;4.20;99.90;;;;;;5009991;28;20826;-87
2021/01/06 10:47:30;;;;;;;8.13;5.50;;;4.20;99.90;;;;;;5010162;28;20494;-87
2021/01/06 10:50:00;;;;;;;12.27;5.87;;;4.20;99.90;;;;;;4989635;28;20211;-85
2021/01/06 10:52:35;;;;;;;16.47;7.93;;;4.20;99.90;;;;;;5049745;22;20237;-90
2021/01/06 10:55:26;;;;;;;14.33;7.30;;;4.30;99.90;;;;;;5070210;28;20227;-91
2021/01/06 10:58:02;;;;;;;13.60;6.60;;;4.30;99.90;;;;;;5066963;28;20201;-87
2021/01/06 11:00:44;;;;;;;12.80;5.97;;;4.30;99.90;;;;;;5069207;28;20200;-90
2021/01/06 11:03:35;;;;;;;12.63;6.00;;;4.30;99.90;;;;;;5070027;28;20284;-86
2021/01/06 11:06:18;;;;;;;8.03;4.83;;;4.30;99.90;;;;;;5070475;28;20189;-84
2021/01/06 11:09:11;;;;;;;6.83;4.43;;;4.40;99.90;;;;;;5069008;28;20278;-89
2021/01/06 11:12:06;;;;;;;6.77;4.97;;;4.40;99.90;;;;;;5069570;28;20225;-85
2021/01/06 11:15:04;;;;;;;8.63;4.60;;;4.40;99.90;;;;;;5069275;28;20208;-89
2021/01/06 11:17:33;;;;;;;8.20;4.53;;;4.40;99.90;;;;;;5068359;28;20197;-81
2021/01/06 11:20:01;;;;;;;8.57;4.90;;;4.40;99.90;;;;;;5069485;28;20824;-89
2021/01/06 11:22:37;;;;;;;5.97;3.70;;;4.40;99.90;;;;;;5069346;28;20221;-89
2021/01/06 11:25:20;;;;;;;8.67;4.10;;;4.40;99.90;;;;;;5081804;28;20216;-90
2021/01/06 11:27:53;;;;;;;6.23;3.87;;;4.40;99.90;;;;;;5089113;28;20231;-86
2021/01/06 11:30:25;;;;;;;10.53;4.40;;;4.50;99.90;;;;;;5089349;28;20181;-87
2021/01/06 11:33:18;;;;;;;7.53;4.57;;;4.40;99.90;;;;;;5080297;28;20217;-92
2021/01/06 11:35:50;;;;;;;6.57;4.30;;;4.40;99.90;;;;;;5068083;28;20220;-87
2021/01/06 11:38:47;;;;;;;6.37;3.90;;;4.40;99.90;;;;;;5073202;28;20201;-87
2021/01/06 11:41:15;;;;;;;8.17;4.40;;;4.50;99.90;;;;;;5067816;28;20219;-85
2021/01/06 11:43:58;;;;;;;7.10;3.80;;;4.50;99.90;;;;;;5071230;28;20549;-87
2021/01/06 11:47:02;;;;;;;7.13;3.47;;;4.50;99.90;;;;;;5079783;28;20313;-87
2021/01/06 11:49:48;;;;;;;9.13;3.40;;;4.40;99.90;;;;;;5025217;28;20660;-88
2021/01/06 11:52:32;;;;;;;6.80;3.27;;;4.50;99.90;;;;;;5079172;28;20229;-86
2021/01/06 11:55:10;;;;;;;6.43;3.50;;;4.50;99.90;;;;;;5073748;28;20809;-88
2021/01/06 11:57:45;;;;;;;5.70;3.30;;;4.50;99.90;;;;;;5079829;28;20209;-87
2021/01/06 12:00:43;;;;;;;7.33;3.40;;;4.40;99.90;;;;;;5079321;28;20589;-85
2021/01/06 12:03:24;;;;;;;8.00;4.00;;;4.50;99.90;;;;;;5083156;28;20921;-87
2021/01/06 12:06:05;;;;;;;5.60;3.53;;;4.50;99.90;;;;;;5083732;28;20220;-85
2021/01/06 12:09:07;;;;;;;9.77;3.20;;;4.50;99.90;;;;;;5080728;28;20569;-82
2021/01/06 12:11:41;;;;;;;4.57;2.87;;;4.60;99.90;;;;;;5078411;28;20232;-83
2021/01/06 12:14:22;;;;;;;7.13;2.70;;;4.60;99.90;;;;;;5072100;28;20613;-82
2021/01/06 12:16:54;;;;;;;5.80;2.70;;;4.50;99.90;;;;;;5077062;28;20208;-83
2021/01/06 12:19:33;;;;;;;7.53;3.53;;;4.60;99.90;;;;;;5074587;28;20207;-84
2021/01/06 12:22:17;;;;;;;5.60;3.00;;;4.60;99.90;;;;;;5077466;28;20191;-83
2021/01/06 12:24:51;;;;;;;7.23;3.17;;;4.60;99.90;;;;;;5080205;28;20228;-88
2021/01/06 12:27:34;;;;;;;8.80;3.73;;;4.60;99.90;;;;;;5081906;28;20204;-82
2021/01/06 12:30:22;;;;;;;6.57;3.67;;;4.50;99.90;;;;;;5081559;28;20204;-81
2021/01/06 12:32:55;;;;;;;6.40;3.10;;;4.60;99.90;;;;;;5082388;28;20274;-85
2021/01/06 12:35:28;;;;;;;4.60;3.17;;;4.60;99.90;;;;;;5093844;28;20198;-85
2021/01/06 12:38:04;;;;;;;7.27;3.00;;;4.60;99.90;;;;;;5102137;28;20330;-90
2021/01/06 12:40:33;;;;;;;4.17;2.73;;;4.60;99.90;;;;;;5082484;28;20212;-89
2021/01/06 12:43:04;;;;;;;5.00;3.10;;;4.60;99.90;;;;;;5087673;28;20204;-90
2021/01/06 12:45:34;;;;;;;6.80;3.00;;;4.60;99.90;;;;;;5079920;28;20201;-89
2021/01/06 12:48:06;;;;;;;7.87;2.70;;;4.60;99.90;;;;;;5078343;28;20235;-90
2021/01/06 12:50:41;;;;;;;7.63;2.50;;;4.50;99.90;;;;;;5082311;28;20267;-92
2021/01/06 12:53:20;;;;;;;6.17;3.10;;;4.60;99.90;;;;;;5081441;28;20256;-88
2021/01/06 12:55:57;;;;;;;6.03;2.70;;;4.60;99.90;;;;;;5077756;28;20196;-89
2021/01/06 12:58:31;;;;;;;5.13;2.53;;;4.60;99.90;;;;;;5075947;28;20201;-91
2021/01/06 13:01:03;;;;;;;6.23;2.73;;;4.60;99.90;;;;;;5083312;28;20189;-88
2021/01/06 13:03:35;;;;;;;6.67;3.20;;;4.60;99.90;;;;;;5078700;28;20205;-88
2021/01/06 13:06:14;;;;;;;5.13;2.50;;;4.60;99.90;;;;;;5080640;28;20653;-87
2021/01/06 13:08:50;;;;;;;6.97;3.67;;;4.70;99.90;;;;;;5078833;28;20201;-87
2021/01/06 13:11:26;;;;;;;5.57;2.80;;;4.70;99.90;;;;;;5091041;28;20283;-87
2021/01/06 13:14:11;;;;;;;7.13;3.03;;;4.80;99.90;;;;;;5091715;28;20658;-92
2021/01/06 13:16:53;;;;;;;5.20;2.80;;;4.80;99.90;;;;;;5086223;28;20192;-88
2021/01/06 13:19:35;;;;;;;5.67;2.80;;;4.70;99.90;;;;;;5082042;28;20205;-90
2021/01/06 13:22:25;;;;;;;5.30;2.50;;;4.70;99.90;;;;;;5079193;28;20201;-90
2021/01/06 13:25:09;;;;;;;7.60;3.47;;;4.80;99.90;;;;;;5068764;28;20236;-89
2021/01/06 13:28:10;;;;;;;4.60;2.83;;;4.70;99.90;;;;;;5078274;28;20283;-88
2021/01/06 13:30:45;;;;;;;5.00;2.80;;;4.70;99.90;;;;;;5038452;28;20201;-92
2021/01/06 13:33:21;;;;;;;6.33;2.40;;;4.70;99.90;;;;;;5081532;28;20236;-91
2021/01/06 13:36:17;;;;;;;4.03;2.47;;;4.70;99.90;;;;;;5077770;28;20200;-91
2021/01/06 13:38:56;;;;;;;2.93;2.20;;;4.80;99.90;;;;;;5076540;28;20205;-89
2021/01/06 13:41:27;;;;;;;4.90;2.40;;;4.70;99.90;;;;;;5080658;28;20227;-91
2021/01/06 13:43:59;;;;;;;5.93;2.17;;;4.70;99.90;;;;;;5075855;28;20204;-88
2021/01/06 13:46:48;;;;;;;3.23;1.60;;;4.70;99.90;;;;;;5077782;28;20213;-86